»·PEaware :: WAT169 KLAS-KSAN

WAT169 :: KLAS-KSAN

FLIGHT INFORMATION

Flight Status: Arrived
Operator:
Walker Air Transport
More flights by this operator :: More flights under this callsign
Pilot: Marty P. (27464)
Aircraft: BOEING 737-800
(B738)
More flights by this aircraft type
Origin: KLAS McCarran Intl
United States
Destination: KSAN San Diego Intl-Lindbergh
United States
More flights between these airports :: More routes between these airports
Route: +BOACH8 LVELL LUCKI1
File this flight plan on PilotEdge
Remarks:
Altitude:
(Current/Filed)
28,000ft
Speed:
(Current/Filed)
470kts
Departed: 06-Jun-20 08:26 AM
Arrived: 06-Jun-20 09:12 AM
Distance/Time
Traveled:
225nm/0:46
Distance/Time
To Go:
Arrived

Flight Plot

Page will automatically refresh every two minutes.

Flight plan parsing failed; only flown route is shown


Map Options




Map Legend


Flown Route
Filed Route
Departure Airport
Arrival Airport
Navaid (VOR, NDB)
Fix

Horizontal Profiles

Position Reports

Time Latitude Longitude Heading Altitude Ground
Speed
06-Jun-20 07:37 36.081009 -115.147654 61 2191ft 0kts
06-Jun-20 07:38 36.081009 -115.147654 61 2191ft 0kts
06-Jun-20 07:39 36.081009 -115.147654 61 2191ft 0kts
06-Jun-20 07:40 36.081009 -115.147654 61 2191ft 0kts
06-Jun-20 07:41 36.081009 -115.147654 61 2191ft 0kts
06-Jun-20 07:42 36.081009 -115.147654 61 2191ft 0kts
06-Jun-20 07:43 36.081009 -115.147654 61 2191ft 0kts
06-Jun-20 07:44 36.081009 -115.147654 61 2191ft 0kts
06-Jun-20 07:46 36.081009 -115.147654 61 2191ft 0kts
06-Jun-20 07:47 36.081009 -115.147654 61 2191ft 0kts
06-Jun-20 07:48 36.081009 -115.147654 61 2191ft 0kts
06-Jun-20 07:49 36.081009 -115.147654 61 2191ft 0kts
06-Jun-20 07:50 36.081009 -115.147654 61 2191ft 0kts
06-Jun-20 07:51 36.081009 -115.147654 61 2191ft 0kts
06-Jun-20 07:52 36.081009 -115.147654 61 2191ft 0kts
06-Jun-20 07:53 36.081009 -115.147654 61 2191ft 0kts
06-Jun-20 07:54 36.081009 -115.147654 61 2191ft 0kts
06-Jun-20 07:55 36.081009 -115.147654 61 2191ft 0kts
06-Jun-20 07:56 36.081009 -115.147654 61 2191ft 0kts
06-Jun-20 07:57 36.081009 -115.147654 61 2191ft 0kts
06-Jun-20 07:58 36.081009 -115.147654 61 2191ft 0kts
06-Jun-20 07:59 36.081009 -115.147654 61 2191ft 0kts
06-Jun-20 08:00 36.081009 -115.147654 61 2191ft 0kts
06-Jun-20 08:01 36.081009 -115.147654 61 2191ft 0kts
06-Jun-20 08:02 36.081009 -115.147654 61 2191ft 0kts
06-Jun-20 08:03 36.081009 -115.147654 61 2191ft 0kts
06-Jun-20 08:03 36.081009 -115.147654 61 2191ft 0kts
06-Jun-20 08:05 36.081009 -115.147654 61 2191ft 0kts
06-Jun-20 08:06 36.081009 -115.147654 61 2191ft 0kts
06-Jun-20 08:06 36.081009 -115.147654 61 2191ft 0kts
06-Jun-20 08:08 36.081009 -115.147654 61 2191ft 0kts
06-Jun-20 08:08 36.081009 -115.147654 61 2191ft 0kts
06-Jun-20 08:09 36.081009 -115.147655 61 2191ft 0kts
06-Jun-20 08:10 36.080919 -115.147857 64 2191ft 2kts
06-Jun-20 08:11 36.081070 -115.148515 145 2191ft 2kts
06-Jun-20 08:12 36.081184 -115.148589 155 2191ft 0kts
06-Jun-20 08:13 36.081184 -115.148589 155 2191ft 0kts
06-Jun-20 08:14 36.081088 -115.148535 154 2191ft 0kts
06-Jun-20 08:15 36.080552 -115.148228 156 2191ft 10kts
06-Jun-20 08:16 36.078542 -115.146853 108 2191ft 6kts
06-Jun-20 08:17 36.078286 -115.143506 92 2191ft 13kts
06-Jun-20 08:18 36.078280 -115.138341 89 2191ft 13kts
06-Jun-20 08:19 36.078261 -115.133130 90 2191ft 16kts
06-Jun-20 08:20 36.078279 -115.128954 90 2191ft 9kts
06-Jun-20 08:21 36.078278 -115.126026 90 2191ft 8kts
06-Jun-20 08:22 36.078038 -115.122372 125 2191ft 10kts
06-Jun-20 08:23 36.077568 -115.121636 130 2191ft 3kts
06-Jun-20 08:24 36.076475 -115.121535 257 2191ft 8kts
06-Jun-20 08:25 36.076582 -115.148959 266 2337ft 185kts
06-Jun-20 08:26 36.074663 -115.221980 252 4662ft 251kts
06-Jun-20 08:27 36.026413 -115.276949 197 7092ft 261kts
06-Jun-20 08:28 35.958791 -115.303054 186 7725ft 270kts
06-Jun-20 08:29 35.887492 -115.310748 185 11256ft 268kts
06-Jun-20 08:30 35.801167 -115.305219 175 12213ft 357kts
06-Jun-20 08:31 35.700345 -115.290923 178 14771ft 375kts
06-Jun-20 08:32 35.595108 -115.293986 187 17218ft 386kts
06-Jun-20 08:33 35.486217 -115.301099 188 19042ft 404kts
06-Jun-20 08:34 35.375831 -115.306448 187 18798ft 408kts
06-Jun-20 08:35 35.263054 -115.311050 188 21295ft 409kts
06-Jun-20 08:36 35.147483 -115.315664 188 23112ft 422kts
06-Jun-20 08:37 35.029382 -115.320315 189 24834ft 432kts
06-Jun-20 08:38 34.908451 -115.325055 189 26410ft 441kts
06-Jun-20 08:39 34.792308 -115.340270 199 27778ft 437kts
06-Jun-20 08:40 34.675581 -115.380591 205 27840ft 446kts
06-Jun-20 08:41 34.557148 -115.429948 206 27918ft 455kts
06-Jun-20 08:42 34.437809 -115.481381 206 27936ft 463kts
06-Jun-20 08:43 34.322827 -115.539284 214 27935ft 454kts
06-Jun-20 08:44 34.212690 -115.608580 210 27937ft 459kts
06-Jun-20 08:45 34.100091 -115.665440 208 27937ft 460kts
06-Jun-20 08:46 33.986519 -115.720089 208 27884ft 460kts
06-Jun-20 08:47 33.865550 -115.778206 208 27826ft 459kts
06-Jun-20 08:48 33.752854 -115.833292 208 27822ft 418kts
06-Jun-20 08:49 33.644815 -115.883992 208 27826ft 428kts
06-Jun-20 08:50 33.540555 -115.938780 222 26374ft 398kts
06-Jun-20 08:51 33.468112 -116.031281 237 25033ft 388kts
06-Jun-20 08:52 33.406587 -116.132612 239 22351ft 372kts
06-Jun-20 08:53 33.347897 -116.229189 231 19904ft 360kts
06-Jun-20 08:54 33.265781 -116.292383 212 18026ft 349kts
06-Jun-20 08:55 33.176659 -116.344414 211 16347ft 371kts
06-Jun-20 08:56 33.089241 -116.395402 211 14185ft 353kts
06-Jun-20 08:57 33.007906 -116.444050 218 13069ft 310kts
06-Jun-20 08:58 32.948187 -116.501956 224 11643ft 298kts
06-Jun-20 08:59 32.893147 -116.557577 224 11059ft 252kts
06-Jun-20 09:00 32.846033 -116.605164 224 10074ft 255kts
06-Jun-20 09:01 32.791314 -116.660174 223 8814ft 256kts
06-Jun-20 09:02 32.750555 -116.726514 243 7555ft 243kts
06-Jun-20 09:03 32.719271 -116.793243 242 6407ft 224kts
06-Jun-20 09:04 32.694769 -116.858264 251 5389ft 227kts
06-Jun-20 09:05 32.675710 -116.929059 264 4348ft 212kts
06-Jun-20 09:06 32.684304 -116.987684 286 3404ft 173kts
06-Jun-20 09:07 32.697622 -117.041780 285 2663ft 160kts
06-Jun-20 09:08 32.708856 -117.088052 285 1756ft 146kts
06-Jun-20 09:09 32.720110 -117.134425 286 849ft 145kts
06-Jun-20 09:10 32.731252 -117.180059 287 57ft 143kts
06-Jun-20 09:11 32.734140 -117.195235 251 27ft 7kts
06-Jun-20 09:12 32.734100 -117.195403 257 27ft 0kts
06-Jun-20 09:13 32.734137 -117.196578 259 27ft 9kts
06-Jun-20 09:14 32.733340 -117.197660 281 27ft 2kts
06-Jun-20 09:15 32.733362 -117.197786 282 27ft 0kts

Navigation Log

Ident Type
Flight plan parsing failed, navigation log unavailable